sensor_id;sensor_type;location;lat;lon;timestamp;P1;durP1;ratioP1;P2;durP2;ratioP2
20734;SDS011;10528;52.124;5.196;2022-12-13T00:01:53;25.25;;;14.77;;
20734;SDS011;10528;52.124;5.196;2022-12-13T00:04:21;26.00;;;14.77;;
20734;SDS011;10528;52.124;5.196;2022-12-13T00:06:49;22.50;;;13.70;;
20734;SDS011;10528;52.124;5.196;2022-12-13T00:09:19;24.02;;;13.30;;
20734;SDS011;10528;52.124;5.196;2022-12-13T00:11:46;23.65;;;13.43;;
20734;SDS011;10528;52.124;5.196;2022-12-13T00:14:15;24.17;;;13.55;;
20734;SDS011;10528;52.124;5.196;2022-12-13T00:16:43;27.75;;;15.07;;
20734;SDS011;10528;52.124;5.196;2022-12-13T00:19:14;25.35;;;14.82;;
20734;SDS011;10528;52.124;5.196;2022-12-13T00:21:42;25.48;;;14.35;;
20734;SDS011;10528;52.124;5.196;2022-12-13T00:24:10;23.65;;;14.73;;
20734;SDS011;10528;52.124;5.196;2022-12-13T00:26:37;23.98;;;14.50;;
20734;SDS011;10528;52.124;5.196;2022-12-13T00:29:05;21.58;;;13.32;;
20734;SDS011;10528;52.124;5.196;2022-12-13T00:31:33;27.20;;;14.63;;
20734;SDS011;10528;52.124;5.196;2022-12-13T00:34:21;24.08;;;14.40;;
20734;SDS011;10528;52.124;5.196;2022-12-13T00:36:48;26.48;;;14.88;;
20734;SDS011;10528;52.124;5.196;2022-12-13T00:39:15;28.10;;;14.55;;
20734;SDS011;10528;52.124;5.196;2022-12-13T00:41:44;23.42;;;13.95;;
20734;SDS011;10528;52.124;5.196;2022-12-13T00:44:12;24.75;;;14.85;;
20734;SDS011;10528;52.124;5.196;2022-12-13T00:46:39;25.38;;;13.43;;
20734;SDS011;10528;52.124;5.196;2022-12-13T00:49:08;25.70;;;14.55;;
20734;SDS011;10528;52.124;5.196;2022-12-13T00:51:36;22.73;;;13.75;;
20734;SDS011;10528;52.124;5.196;2022-12-13T00:54:03;23.15;;;13.82;;
20734;SDS011;10528;52.124;5.196;2022-12-13T00:56:31;24.73;;;13.70;;
20734;SDS011;10528;52.124;5.196;2022-12-13T00:58:59;28.58;;;14.60;;
20734;SDS011;10528;52.124;5.196;2022-12-13T01:01:27;28.00;;;14.77;;
20734;SDS011;10528;52.124;5.196;2022-12-13T01:03:58;27.05;;;13.77;;
20734;SDS011;10528;52.124;5.196;2022-12-13T01:06:28;29.77;;;14.45;;
20734;SDS011;10528;52.124;5.196;2022-12-13T01:09:08;25.83;;;14.05;;
20734;SDS011;10528;52.124;5.196;2022-12-13T01:11:46;26.20;;;14.85;;
20734;SDS011;10528;52.124;5.196;2022-12-13T01:14:14;26.60;;;14.75;;
20734;SDS011;10528;52.124;5.196;2022-12-13T01:16:42;25.13;;;14.95;;
20734;SDS011;10528;52.124;5.196;2022-12-13T01:19:09;23.60;;;14.40;;
20734;SDS011;10528;52.124;5.196;2022-12-13T01:21:36;23.88;;;14.93;;
20734;SDS011;10528;52.124;5.196;2022-12-13T01:24:03;27.40;;;15.60;;
20734;SDS011;10528;52.124;5.196;2022-12-13T01:26:31;25.92;;;15.77;;
20734;SDS011;10528;52.124;5.196;2022-12-13T01:28:59;31.38;;;15.63;;
20734;SDS011;10528;52.124;5.196;2022-12-13T01:31:26;27.00;;;14.63;;
20734;SDS011;10528;52.124;5.196;2022-12-13T01:33:54;27.83;;;15.52;;
20734;SDS011;10528;52.124;5.196;2022-12-13T01:36:21;28.33;;;15.63;;
20734;SDS011;10528;52.124;5.196;2022-12-13T01:38:53;29.58;;;15.18;;
20734;SDS011;10528;52.124;5.196;2022-12-13T01:41:24;28.67;;;15.27;;
20734;SDS011;10528;52.124;5.196;2022-12-13T01:43:55;24.40;;;13.77;;
20734;SDS011;10528;52.124;5.196;2022-12-13T01:46:30;30.00;;;15.52;;
20734;SDS011;10528;52.124;5.196;2022-12-13T01:51:57;25.30;;;14.88;;
20734;SDS011;10528;52.124;5.196;2022-12-13T01:54:31;24.80;;;14.65;;
20734;SDS011;10528;52.124;5.196;2022-12-13T01:57:12;29.85;;;16.55;;
20734;SDS011;10528;52.124;5.196;2022-12-13T01:59:44;30.88;;;17.33;;
20734;SDS011;10528;52.124;5.196;2022-12-13T02:02:13;30.15;;;16.45;;
20734;SDS011;10528;52.124;5.196;2022-12-13T02:04:54;29.55;;;17.00;;
20734;SDS011;10528;52.124;5.196;2022-12-13T02:07:32;30.48;;;17.52;;
20734;SDS011;10528;52.124;5.196;2022-12-13T02:10:03;31.58;;;17.63;;
20734;SDS011;10528;52.124;5.196;2022-12-13T02:12:33;32.17;;;17.83;;
20734;SDS011;10528;52.124;5.196;2022-12-13T02:15:04;31.10;;;18.73;;
20734;SDS011;10528;52.124;5.196;2022-12-13T02:27:25;32.85;;;16.83;;
20734;SDS011;10528;52.124;5.196;2022-12-13T02:35:50;30.15;;;16.60;;
20734;SDS011;10528;52.124;5.196;2022-12-13T02:41:32;27.95;;;15.85;;
20734;SDS011;10528;52.124;5.196;2022-12-13T02:44:21;28.30;;;15.52;;
20734;SDS011;10528;52.124;5.196;2022-12-13T02:46:54;26.70;;;15.70;;
20734;SDS011;10528;52.124;5.196;2022-12-13T02:49:29;25.25;;;15.48;;
20734;SDS011;10528;52.124;5.196;2022-12-13T02:52:00;26.80;;;15.13;;
20734;SDS011;10528;52.124;5.196;2022-12-13T02:54:28;27.30;;;14.93;;
20734;SDS011;10528;52.124;5.196;2022-12-13T02:56:56;25.50;;;15.13;;
20734;SDS011;10528;52.124;5.196;2022-12-13T02:59:34;27.05;;;15.35;;
20734;SDS011;10528;52.124;5.196;2022-12-13T03:02:16;29.75;;;15.70;;
20734;SDS011;10528;52.124;5.196;2022-12-13T03:05:07;27.02;;;15.05;;
20734;SDS011;10528;52.124;5.196;2022-12-13T03:11:13;30.08;;;15.90;;
20734;SDS011;10528;52.124;5.196;2022-12-13T03:19:17;25.20;;;14.52;;
20734;SDS011;10528;52.124;5.196;2022-12-13T03:21:46;25.70;;;14.32;;
20734;SDS011;10528;52.124;5.196;2022-12-13T03:24:16;23.67;;;14.20;;
20734;SDS011;10528;52.124;5.196;2022-12-13T03:26:46;29.20;;;14.82;;
20734;SDS011;10528;52.124;5.196;2022-12-13T03:29:15;21.95;;;13.00;;
20734;SDS011;10528;52.124;5.196;2022-12-13T03:31:50;28.10;;;14.70;;
20734;SDS011;10528;52.124;5.196;2022-12-13T03:34:18;29.58;;;14.85;;
20734;SDS011;10528;52.124;5.196;2022-12-13T03:36:49;23.42;;;14.10;;
20734;SDS011;10528;52.124;5.196;2022-12-13T03:39:18;29.90;;;15.45;;
20734;SDS011;10528;52.124;5.196;2022-12-13T03:41:46;29.17;;;15.90;;
20734;SDS011;10528;52.124;5.196;2022-12-13T03:44:14;29.25;;;16.25;;
20734;SDS011;10528;52.124;5.196;2022-12-13T03:46:42;30.10;;;16.50;;
20734;SDS011;10528;52.124;5.196;2022-12-13T03:49:09;31.10;;;17.13;;
20734;SDS011;10528;52.124;5.196;2022-12-13T03:51:42;36.42;;;17.70;;
20734;SDS011;10528;52.124;5.196;2022-12-13T03:54:09;32.47;;;17.38;;
20734;SDS011;10528;52.124;5.196;2022-12-13T03:56:36;29.13;;;15.48;;
20734;SDS011;10528;52.124;5.196;2022-12-13T03:59:03;27.63;;;14.68;;
20734;SDS011;10528;52.124;5.196;2022-12-13T04:01:30;29.85;;;15.50;;
20734;SDS011;10528;52.124;5.196;2022-12-13T04:03:56;32.08;;;16.90;;
20734;SDS011;10528;52.124;5.196;2022-12-13T04:06:23;29.92;;;16.00;;
20734;SDS011;10528;52.124;5.196;2022-12-13T04:08:57;29.83;;;16.08;;
20734;SDS011;10528;52.124;5.196;2022-12-13T04:11:24;30.17;;;16.45;;
20734;SDS011;10528;52.124;5.196;2022-12-13T04:14:10;32.50;;;18.30;;
20734;SDS011;10528;52.124;5.196;2022-12-13T04:16:47;34.05;;;17.55;;
20734;SDS011;10528;52.124;5.196;2022-12-13T04:19:15;28.90;;;15.70;;
20734;SDS011;10528;52.124;5.196;2022-12-13T04:21:49;27.55;;;16.38;;
20734;SDS011;10528;52.124;5.196;2022-12-13T04:24:20;28.25;;;16.50;;
20734;SDS011;10528;52.124;5.196;2022-12-13T04:26:57;29.58;;;16.60;;
20734;SDS011;10528;52.124;5.196;2022-12-13T04:29:27;31.02;;;16.38;;
20734;SDS011;10528;52.124;5.196;2022-12-13T04:32:00;30.35;;;16.05;;
20734;SDS011;10528;52.124;5.196;2022-12-13T04:34:51;29.42;;;15.82;;
20734;SDS011;10528;52.124;5.196;2022-12-13T04:37:26;32.67;;;16.80;;
20734;SDS011;10528;52.124;5.196;2022-12-13T04:39:53;29.23;;;16.38;;
20734;SDS011;10528;52.124;5.196;2022-12-13T04:42:26;31.85;;;16.85;;
20734;SDS011;10528;52.124;5.196;2022-12-13T04:44:53;32.65;;;17.45;;
20734;SDS011;10528;52.124;5.196;2022-12-13T04:47:20;30.67;;;17.90;;
20734;SDS011;10528;52.124;5.196;2022-12-13T04:49:47;30.40;;;17.23;;
20734;SDS011;10528;52.124;5.196;2022-12-13T04:52:14;34.42;;;17.60;;
20734;SDS011;10528;52.124;5.196;2022-12-13T04:54:48;29.17;;;17.67;;
20734;SDS011;10528;52.124;5.196;2022-12-13T04:57:21;31.73;;;17.33;;
20734;SDS011;10528;52.124;5.196;2022-12-13T04:59:48;27.90;;;16.08;;
20734;SDS011;10528;52.124;5.196;2022-12-13T05:02:15;29.25;;;15.95;;
20734;SDS011;10528;52.124;5.196;2022-12-13T05:04:49;31.30;;;16.58;;
20734;SDS011;10528;52.124;5.196;2022-12-13T05:07:21;24.75;;;14.65;;
20734;SDS011;10528;52.124;5.196;2022-12-13T05:09:48;26.90;;;15.25;;
20734;SDS011;10528;52.124;5.196;2022-12-13T05:12:15;29.10;;;16.10;;
20734;SDS011;10528;52.124;5.196;2022-12-13T05:14:48;34.58;;;16.73;;
20734;SDS011;10528;52.124;5.196;2022-12-13T05:17:19;29.40;;;16.02;;
20734;SDS011;10528;52.124;5.196;2022-12-13T05:19:46;29.13;;;15.77;;
20734;SDS011;10528;52.124;5.196;2022-12-13T05:22:13;29.63;;;15.68;;
20734;SDS011;10528;52.124;5.196;2022-12-13T05:24:46;30.05;;;16.85;;
20734;SDS011;10528;52.124;5.196;2022-12-13T05:27:14;28.83;;;16.33;;
20734;SDS011;10528;52.124;5.196;2022-12-13T05:29:55;26.90;;;15.75;;
20734;SDS011;10528;52.124;5.196;2022-12-13T05:32:33;31.25;;;16.15;;
20734;SDS011;10528;52.124;5.196;2022-12-13T05:35:09;25.23;;;14.48;;
20734;SDS011;10528;52.124;5.196;2022-12-13T05:37:52;28.67;;;16.23;;
20734;SDS011;10528;52.124;5.196;2022-12-13T05:40:24;28.75;;;15.68;;
20734;SDS011;10528;52.124;5.196;2022-12-13T05:42:53;30.35;;;16.00;;
20734;SDS011;10528;52.124;5.196;2022-12-13T05:45:27;30.48;;;15.10;;
20734;SDS011;10528;52.124;5.196;2022-12-13T05:47:56;27.13;;;15.68;;
20734;SDS011;10528;52.124;5.196;2022-12-13T05:50:23;28.20;;;15.18;;
20734;SDS011;10528;52.124;5.196;2022-12-13T05:52:50;29.13;;;15.20;;
20734;SDS011;10528;52.124;5.196;2022-12-13T05:55:17;27.38;;;14.70;;
20734;SDS011;10528;52.124;5.196;2022-12-13T05:57:45;26.08;;;15.32;;
20734;SDS011;10528;52.124;5.196;2022-12-13T06:00:16;25.52;;;14.57;;
20734;SDS011;10528;52.124;5.196;2022-12-13T06:02:54;28.30;;;14.88;;
20734;SDS011;10528;52.124;5.196;2022-12-13T06:05:25;27.13;;;14.38;;
20734;SDS011;10528;52.124;5.196;2022-12-13T06:07:53;25.83;;;15.43;;
20734;SDS011;10528;52.124;5.196;2022-12-13T06:10:23;26.88;;;15.05;;
20734;SDS011;10528;52.124;5.196;2022-12-13T06:13:01;29.10;;;16.13;;
20734;SDS011;10528;52.124;5.196;2022-12-13T06:15:50;27.58;;;14.88;;
20734;SDS011;10528;52.124;5.196;2022-12-13T06:18:26;26.50;;;14.95;;
20734;SDS011;10528;52.124;5.196;2022-12-13T06:20:57;26.25;;;14.95;;
20734;SDS011;10528;52.124;5.196;2022-12-13T06:23:28;28.38;;;15.00;;
20734;SDS011;10528;52.124;5.196;2022-12-13T06:25:57;26.08;;;14.05;;
20734;SDS011;10528;52.124;5.196;2022-12-13T06:28:24;27.95;;;14.52;;
20734;SDS011;10528;52.124;5.196;2022-12-13T06:30:51;25.25;;;15.05;;
20734;SDS011;10528;52.124;5.196;2022-12-13T06:33:18;27.13;;;14.65;;
20734;SDS011;10528;52.124;5.196;2022-12-13T06:35:48;29.55;;;14.90;;
20734;SDS011;10528;52.124;5.196;2022-12-13T06:38:17;26.27;;;14.43;;
20734;SDS011;10528;52.124;5.196;2022-12-13T06:43:57;27.13;;;14.75;;
20734;SDS011;10528;52.124;5.196;2022-12-13T06:46:24;28.80;;;14.85;;
20734;SDS011;10528;52.124;5.196;2022-12-13T06:48:51;27.48;;;15.05;;
20734;SDS011;10528;52.124;5.196;2022-12-13T06:51:18;26.00;;;14.30;;
20734;SDS011;10528;52.124;5.196;2022-12-13T06:53:57;28.42;;;15.02;;
20734;SDS011;10528;52.124;5.196;2022-12-13T06:56:26;26.05;;;15.40;;
20734;SDS011;10528;52.124;5.196;2022-12-13T06:58:53;24.48;;;14.43;;
20734;SDS011;10528;52.124;5.196;2022-12-13T07:01:27;26.92;;;15.90;;
20734;SDS011;10528;52.124;5.196;2022-12-13T07:04:03;26.55;;;14.93;;
20734;SDS011;10528;52.124;5.196;2022-12-13T07:06:54;26.60;;;14.48;;
20734;SDS011;10528;52.124;5.196;2022-12-13T07:09:26;27.90;;;15.32;;
20734;SDS011;10528;52.124;5.196;2022-12-13T07:11:55;27.73;;;15.32;;
20734;SDS011;10528;52.124;5.196;2022-12-13T07:14:22;33.90;;;16.40;;
20734;SDS011;10528;52.124;5.196;2022-12-13T07:16:49;27.77;;;14.98;;
20734;SDS011;10528;52.124;5.196;2022-12-13T07:19:15;31.70;;;15.95;;
20734;SDS011;10528;52.124;5.196;2022-12-13T07:21:49;26.33;;;15.43;;
20734;SDS011;10528;52.124;5.196;2022-12-13T07:24:17;27.23;;;15.20;;
20734;SDS011;10528;52.124;5.196;2022-12-13T07:26:44;27.60;;;15.32;;
20734;SDS011;10528;52.124;5.196;2022-12-13T07:29:11;25.58;;;14.32;;
20734;SDS011;10528;52.124;5.196;2022-12-13T07:31:47;27.35;;;14.75;;
20734;SDS011;10528;52.124;5.196;2022-12-13T07:34:14;26.05;;;15.40;;
20734;SDS011;10528;52.124;5.196;2022-12-13T07:36:41;29.42;;;15.15;;
20734;SDS011;10528;52.124;5.196;2022-12-13T07:39:09;27.23;;;15.68;;
20734;SDS011;10528;52.124;5.196;2022-12-13T07:41:35;26.65;;;15.70;;
20734;SDS011;10528;52.124;5.196;2022-12-13T07:44:04;26.02;;;15.60;;
20734;SDS011;10528;52.124;5.196;2022-12-13T07:46:32;29.52;;;15.85;;
20734;SDS011;10528;52.124;5.196;2022-12-13T07:49:02;27.58;;;16.20;;
20734;SDS011;10528;52.124;5.196;2022-12-13T07:51:32;28.98;;;15.73;;
20734;SDS011;10528;52.124;5.196;2022-12-13T07:54:00;28.45;;;16.35;;
20734;SDS011;10528;52.124;5.196;2022-12-13T07:56:32;29.20;;;16.20;;
20734;SDS011;10528;52.124;5.196;2022-12-13T07:59:00;27.60;;;16.23;;
20734;SDS011;10528;52.124;5.196;2022-12-13T08:01:29;25.13;;;15.52;;
20734;SDS011;10528;52.124;5.196;2022-12-13T08:04:00;27.45;;;16.02;;
20734;SDS011;10528;52.124;5.196;2022-12-13T08:06:29;34.45;;;18.08;;
20734;SDS011;10528;52.124;5.196;2022-12-13T08:09:01;28.73;;;16.80;;
20734;SDS011;10528;52.124;5.196;2022-12-13T08:11:29;29.73;;;16.70;;
20734;SDS011;10528;52.124;5.196;2022-12-13T08:13:56;27.08;;;16.85;;
20734;SDS011;10528;52.124;5.196;2022-12-13T08:16:23;29.52;;;17.77;;
20734;SDS011;10528;52.124;5.196;2022-12-13T08:18:54;32.35;;;16.58;;
20734;SDS011;10528;52.124;5.196;2022-12-13T08:21:32;29.85;;;16.90;;
20734;SDS011;10528;52.124;5.196;2022-12-13T08:24:26;29.10;;;15.85;;
20734;SDS011;10528;52.124;5.196;2022-12-13T08:26:56;29.48;;;16.40;;
20734;SDS011;10528;52.124;5.196;2022-12-13T08:29:26;31.83;;;15.60;;
20734;SDS011;10528;52.124;5.196;2022-12-13T08:32:01;30.67;;;16.25;;
20734;SDS011;10528;52.124;5.196;2022-12-13T08:34:31;28.38;;;16.65;;
20734;SDS011;10528;52.124;5.196;2022-12-13T08:36:58;27.73;;;15.70;;
20734;SDS011;10528;52.124;5.196;2022-12-13T08:39:35;27.80;;;16.48;;
20734;SDS011;10528;52.124;5.196;2022-12-13T08:42:05;30.63;;;16.42;;
20734;SDS011;10528;52.124;5.196;2022-12-13T08:44:46;26.90;;;15.93;;
20734;SDS011;10528;52.124;5.196;2022-12-13T08:47:18;29.33;;;17.40;;
20734;SDS011;10528;52.124;5.196;2022-12-13T08:49:51;30.05;;;16.40;;
20734;SDS011;10528;52.124;5.196;2022-12-13T08:52:28;28.92;;;16.17;;
20734;SDS011;10528;52.124;5.196;2022-12-13T08:55:06;28.58;;;16.02;;
20734;SDS011;10528;52.124;5.196;2022-12-13T08:57:38;29.60;;;17.15;;
20734;SDS011;10528;52.124;5.196;2022-12-13T09:00:07;31.50;;;18.48;;
20734;SDS011;10528;52.124;5.196;2022-12-13T09:02:39;32.40;;;17.35;;
20734;SDS011;10528;52.124;5.196;2022-12-13T09:05:06;32.25;;;17.33;;
20734;SDS011;10528;52.124;5.196;2022-12-13T09:07:34;33.33;;;17.75;;
20734;SDS011;10528;52.124;5.196;2022-12-13T09:10:04;33.33;;;17.38;;
20734;SDS011;10528;52.124;5.196;2022-12-13T09:12:52;30.85;;;17.13;;
20734;SDS011;10528;52.124;5.196;2022-12-13T09:15:27;29.90;;;17.30;;
20734;SDS011;10528;52.124;5.196;2022-12-13T09:18:00;35.13;;;18.27;;
20734;SDS011;10528;52.124;5.196;2022-12-13T09:20:30;30.50;;;18.73;;
20734;SDS011;10528;52.124;5.196;2022-12-13T09:23:07;32.53;;;17.92;;
20734;SDS011;10528;52.124;5.196;2022-12-13T09:25:55;32.00;;;17.65;;
20734;SDS011;10528;52.124;5.196;2022-12-13T09:28:31;32.03;;;17.40;;
20734;SDS011;10528;52.124;5.196;2022-12-13T09:31:15;33.33;;;18.42;;
20734;SDS011;10528;52.124;5.196;2022-12-13T09:33:44;29.85;;;18.48;;
20734;SDS011;10528;52.124;5.196;2022-12-13T09:36:13;32.63;;;18.35;;
20734;SDS011;10528;52.124;5.196;2022-12-13T09:38:43;34.22;;;19.30;;
20734;SDS011;10528;52.124;5.196;2022-12-13T09:41:20;33.00;;;18.25;;
20734;SDS011;10528;52.124;5.196;2022-12-13T09:43:58;32.45;;;18.60;;
20734;SDS011;10528;52.124;5.196;2022-12-13T09:46:56;37.08;;;20.85;;
20734;SDS011;10528;52.124;5.196;2022-12-13T09:49:28;33.85;;;20.27;;
20734;SDS011;10528;52.124;5.196;2022-12-13T09:52:18;39.78;;;21.02;;
20734;SDS011;10528;52.124;5.196;2022-12-13T09:54:53;38.72;;;21.30;;
20734;SDS011;10528;52.124;5.196;2022-12-13T09:57:27;36.80;;;21.77;;
20734;SDS011;10528;52.124;5.196;2022-12-13T10:00:00;41.35;;;22.38;;
20734;SDS011;10528;52.124;5.196;2022-12-13T10:02:46;36.85;;;21.55;;
20734;SDS011;10528;52.124;5.196;2022-12-13T10:05:32;43.15;;;23.20;;
20734;SDS011;10528;52.124;5.196;2022-12-13T10:10:47;40.45;;;23.17;;
20734;SDS011;10528;52.124;5.196;2022-12-13T10:13:37;41.15;;;23.08;;
20734;SDS011;10528;52.124;5.196;2022-12-13T10:19:17;41.95;;;22.92;;
20734;SDS011;10528;52.124;5.196;2022-12-13T10:22:07;41.53;;;23.33;;
20734;SDS011;10528;52.124;5.196;2022-12-13T10:25:00;40.78;;;22.50;;
20734;SDS011;10528;52.124;5.196;2022-12-13T10:32:54;44.47;;;24.55;;
20734;SDS011;10528;52.124;5.196;2022-12-13T10:37:56;45.58;;;25.05;;
20734;SDS011;10528;52.124;5.196;2022-12-13T10:40:45;43.85;;;24.13;;
20734;SDS011;10528;52.124;5.196;2022-12-13T10:48:32;42.60;;;23.75;;
20734;SDS011;10528;52.124;5.196;2022-12-13T10:51:08;44.28;;;24.27;;
20734;SDS011;10528;52.124;5.196;2022-12-13T10:53:47;43.13;;;24.13;;
20734;SDS011;10528;52.124;5.196;2022-12-13T10:56:17;43.97;;;24.52;;
20734;SDS011;10528;52.124;5.196;2022-12-13T10:59:07;42.60;;;23.88;;
20734;SDS011;10528;52.124;5.196;2022-12-13T11:01:48;40.58;;;24.63;;
20734;SDS011;10528;52.124;5.196;2022-12-13T11:04:33;46.38;;;25.20;;
20734;SDS011;10528;52.124;5.196;2022-12-13T11:07:22;43.60;;;24.83;;
20734;SDS011;10528;52.124;5.196;2022-12-13T11:10:15;43.42;;;24.63;;
20734;SDS011;10528;52.124;5.196;2022-12-13T11:12:54;37.80;;;22.88;;
20734;SDS011;10528;52.124;5.196;2022-12-13T11:15:29;40.35;;;23.38;;
20734;SDS011;10528;52.124;5.196;2022-12-13T11:18:01;41.25;;;23.60;;
20734;SDS011;10528;52.124;5.196;2022-12-13T11:21:18;39.75;;;22.95;;
20734;SDS011;10528;52.124;5.196;2022-12-13T11:23:37;42.67;;;23.15;;
20734;SDS011;10528;52.124;5.196;2022-12-13T11:26:13;38.38;;;22.85;;
20734;SDS011;10528;52.124;5.196;2022-12-13T11:41:13;38.20;;;23.23;;
20734;SDS011;10528;52.124;5.196;2022-12-13T11:44:01;39.72;;;23.85;;
20734;SDS011;10528;52.124;5.196;2022-12-13T11:46:55;41.05;;;22.85;;
20734;SDS011;10528;52.124;5.196;2022-12-13T11:52:26;44.67;;;25.40;;
20734;SDS011;10528;52.124;5.196;2022-12-13T11:55:02;41.22;;;25.08;;
20734;SDS011;10528;52.124;5.196;2022-12-13T11:57:40;43.90;;;25.95;;
20734;SDS011;10528;52.124;5.196;2022-12-13T12:03:05;38.17;;;22.65;;
20734;SDS011;10528;52.124;5.196;2022-12-13T12:11:21;38.30;;;23.98;;
20734;SDS011;10528;52.124;5.196;2022-12-13T12:14:12;40.38;;;23.70;;
20734;SDS011;10528;52.124;5.196;2022-12-13T12:17:01;35.92;;;21.75;;
20734;SDS011;10528;52.124;5.196;2022-12-13T12:19:35;41.28;;;24.63;;
20734;SDS011;10528;52.124;5.196;2022-12-13T12:28:37;37.47;;;20.83;;
20734;SDS011;10528;52.124;5.196;2022-12-13T12:31:51;39.22;;;23.45;;
20734;SDS011;10528;52.124;5.196;2022-12-13T12:35:16;36.70;;;22.52;;
20734;SDS011;10528;52.124;5.196;2022-12-13T12:47:04;39.40;;;23.35;;
20734;SDS011;10528;52.124;5.196;2022-12-13T12:50:07;35.97;;;22.08;;
20734;SDS011;10528;52.124;5.196;2022-12-13T12:53:35;37.42;;;23.33;;
20734;SDS011;10528;52.124;5.196;2022-12-13T12:59:15;40.95;;;24.02;;
20734;SDS011;10528;52.124;5.196;2022-12-13T13:04:34;36.20;;;22.25;;
20734;SDS011;10528;52.124;5.196;2022-12-13T13:07:11;39.88;;;22.95;;
20734;SDS011;10528;52.124;5.196;2022-12-13T13:09:50;36.50;;;22.10;;
20734;SDS011;10528;52.124;5.196;2022-12-13T13:12:21;44.50;;;24.95;;
20734;SDS011;10528;52.124;5.196;2022-12-13T13:14:54;44.75;;;26.98;;
20734;SDS011;10528;52.124;5.196;2022-12-13T13:22:43;51.95;;;28.45;;
20734;SDS011;10528;52.124;5.196;2022-12-13T13:25:30;61.95;;;29.90;;
20734;SDS011;10528;52.124;5.196;2022-12-13T13:28:19;58.22;;;31.15;;
20734;SDS011;10528;52.124;5.196;2022-12-13T13:33:45;46.33;;;27.63;;
20734;SDS011;10528;52.124;5.196;2022-12-13T13:39:15;49.33;;;26.75;;
20734;SDS011;10528;52.124;5.196;2022-12-13T13:42:07;48.90;;;26.63;;
20734;SDS011;10528;52.124;5.196;2022-12-13T14:10:50;50.38;;;28.42;;
20734;SDS011;10528;52.124;5.196;2022-12-13T14:16:43;43.28;;;25.33;;
20734;SDS011;10528;52.124;5.196;2022-12-13T14:19:31;45.90;;;26.63;;
20734;SDS011;10528;52.124;5.196;2022-12-13T14:28:46;48.47;;;26.48;;
20734;SDS011;10528;52.124;5.196;2022-12-13T14:31:33;41.90;;;26.25;;
20734;SDS011;10528;52.124;5.196;2022-12-13T14:34:06;43.03;;;25.65;;
20734;SDS011;10528;52.124;5.196;2022-12-13T14:37:02;48.95;;;28.00;;
20734;SDS011;10528;52.124;5.196;2022-12-13T14:39:43;44.13;;;26.35;;
20734;SDS011;10528;52.124;5.196;2022-12-13T14:42:29;50.53;;;27.75;;
20734;SDS011;10528;52.124;5.196;2022-12-13T14:45:15;49.83;;;26.27;;
20734;SDS011;10528;52.124;5.196;2022-12-13T14:47:51;48.25;;;27.15;;
20734;SDS011;10528;52.124;5.196;2022-12-13T14:50:19;44.28;;;26.17;;
20734;SDS011;10528;52.124;5.196;2022-12-13T14:52:48;46.05;;;27.27;;
20734;SDS011;10528;52.124;5.196;2022-12-13T14:55:26;48.05;;;27.88;;
20734;SDS011;10528;52.124;5.196;2022-12-13T14:57:57;47.05;;;26.90;;
20734;SDS011;10528;52.124;5.196;2022-12-13T15:00:32;46.90;;;26.50;;
20734;SDS011;10528;52.124;5.196;2022-12-13T15:03:04;44.67;;;27.63;;
20734;SDS011;10528;52.124;5.196;2022-12-13T15:05:34;46.78;;;26.83;;
20734;SDS011;10528;52.124;5.196;2022-12-13T15:08:17;45.58;;;28.73;;
20734;SDS011;10528;52.124;5.196;2022-12-13T15:10:46;44.97;;;26.63;;
20734;SDS011;10528;52.124;5.196;2022-12-13T15:16:22;51.88;;;29.60;;
20734;SDS011;10528;52.124;5.196;2022-12-13T15:22:00;49.30;;;29.75;;
20734;SDS011;10528;52.124;5.196;2022-12-13T15:24:37;45.95;;;27.80;;
20734;SDS011;10528;52.124;5.196;2022-12-13T15:27:15;44.20;;;27.65;;
20734;SDS011;10528;52.124;5.196;2022-12-13T15:29:47;49.72;;;27.10;;
20734;SDS011;10528;52.124;5.196;2022-12-13T15:32:16;46.92;;;27.45;;
20734;SDS011;10528;52.124;5.196;2022-12-13T15:34:48;50.00;;;27.80;;
20734;SDS011;10528;52.124;5.196;2022-12-13T15:37:21;46.35;;;27.25;;
20734;SDS011;10528;52.124;5.196;2022-12-13T15:39:58;49.38;;;29.65;;
20734;SDS011;10528;52.124;5.196;2022-12-13T15:42:37;55.13;;;32.38;;
20734;SDS011;10528;52.124;5.196;2022-12-13T15:45:23;52.92;;;31.38;;
20734;SDS011;10528;52.124;5.196;2022-12-13T15:48:02;48.85;;;28.27;;
20734;SDS011;10528;52.124;5.196;2022-12-13T15:53:04;51.83;;;31.75;;
20734;SDS011;10528;52.124;5.196;2022-12-13T15:55:46;50.63;;;29.55;;
20734;SDS011;10528;52.124;5.196;2022-12-13T15:58:23;49.90;;;30.45;;
20734;SDS011;10528;52.124;5.196;2022-12-13T16:01:02;49.47;;;30.05;;
20734;SDS011;10528;52.124;5.196;2022-12-13T16:03:42;47.00;;;30.05;;
20734;SDS011;10528;52.124;5.196;2022-12-13T16:06:18;48.80;;;28.95;;
20734;SDS011;10528;52.124;5.196;2022-12-13T16:08:51;50.88;;;28.85;;
20734;SDS011;10528;52.124;5.196;2022-12-13T16:16:58;53.42;;;31.38;;
20734;SDS011;10528;52.124;5.196;2022-12-13T16:19:44;43.70;;;26.17;;
20734;SDS011;10528;52.124;5.196;2022-12-13T16:22:11;49.85;;;30.40;;
20734;SDS011;10528;52.124;5.196;2022-12-13T16:24:38;48.28;;;29.13;;
20734;SDS011;10528;52.124;5.196;2022-12-13T16:27:05;46.63;;;28.08;;
20734;SDS011;10528;52.124;5.196;2022-12-13T16:29:34;47.15;;;28.77;;
20734;SDS011;10528;52.124;5.196;2022-12-13T16:32:02;51.58;;;29.35;;
20734;SDS011;10528;52.124;5.196;2022-12-13T16:34:34;49.13;;;27.95;;
20734;SDS011;10528;52.124;5.196;2022-12-13T16:37:04;46.33;;;27.75;;
20734;SDS011;10528;52.124;5.196;2022-12-13T16:39:51;49.58;;;27.30;;
20734;SDS011;10528;52.124;5.196;2022-12-13T16:42:19;42.83;;;26.10;;
20734;SDS011;10528;52.124;5.196;2022-12-13T16:44:51;45.75;;;27.45;;
20734;SDS011;10528;52.124;5.196;2022-12-13T16:47:38;43.65;;;26.02;;
20734;SDS011;10528;52.124;5.196;2022-12-13T16:50:14;47.67;;;27.58;;
20734;SDS011;10528;52.124;5.196;2022-12-13T16:52:44;48.67;;;26.95;;
20734;SDS011;10528;52.124;5.196;2022-12-13T16:55:11;45.15;;;27.60;;
20734;SDS011;10528;52.124;5.196;2022-12-13T16:57:38;50.15;;;28.35;;
20734;SDS011;10528;52.124;5.196;2022-12-13T17:00:05;47.92;;;25.50;;
20734;SDS011;10528;52.124;5.196;2022-12-13T17:02:35;46.95;;;26.80;;
20734;SDS011;10528;52.124;5.196;2022-12-13T17:05:04;43.67;;;25.90;;
20734;SDS011;10528;52.124;5.196;2022-12-13T17:07:31;43.25;;;24.23;;
20734;SDS011;10528;52.124;5.196;2022-12-13T17:10:00;45.45;;;25.70;;
20734;SDS011;10528;52.124;5.196;2022-12-13T17:12:27;39.33;;;23.55;;
20734;SDS011;10528;52.124;5.196;2022-12-13T17:14:54;47.53;;;28.08;;
20734;SDS011;10528;52.124;5.196;2022-12-13T17:17:21;41.75;;;24.10;;
20734;SDS011;10528;52.124;5.196;2022-12-13T17:19:48;46.65;;;25.35;;
20734;SDS011;10528;52.124;5.196;2022-12-13T17:22:15;43.45;;;25.38;;
20734;SDS011;10528;52.124;5.196;2022-12-13T17:24:42;46.47;;;25.13;;
20734;SDS011;10528;52.124;5.196;2022-12-13T17:27:09;49.33;;;26.15;;
20734;SDS011;10528;52.124;5.196;2022-12-13T17:29:36;42.72;;;23.67;;
20734;SDS011;10528;52.124;5.196;2022-12-13T17:32:03;42.03;;;24.98;;
20734;SDS011;10528;52.124;5.196;2022-12-13T17:34:30;43.97;;;24.08;;
20734;SDS011;10528;52.124;5.196;2022-12-13T17:36:57;43.38;;;23.65;;
20734;SDS011;10528;52.124;5.196;2022-12-13T17:39:24;42.20;;;24.40;;